Pct Moose — CGCZ — position and weather

sailwx.info

Track history (hours):
 
Tides and Currents Weather Stations Pressure Air Temp Water Temp Dewpoint Dewpoint Depression Visibility Wind Speed Wind Dir Waves Ship Positions

Pct Moose

Last reported at 2016-Nov-22 22:18 UTC. Time now 2016-Dec-10 12:54 UTC.
Position N 48°26' W 123°26'.
Warning: this ship's position is 17 days out of date.

Length 33 m.

Type: Military. MMSI: 316013412.

Date/timePositionNaut miles runAvg speedWind from/ knotsBaromVisibWave heightAir tempDewpointWater temp
2016-Nov-22 22:18N 48°26' W 123°26'0 0.0
2016-Nov-22 20:33N 48°26' W 123°26'0 0.0
2016-Nov-22 19:33N 48°26' W 123°26'0 0.0
2016-Nov-22 17:25N 48°26' W 123°26'0 0.0
2016-Nov-22 16:33N 48°26' W 123°26'0 0.0
2016-Nov-22 15:15N 48°26' W 123°26'0 0.0
2016-Nov-22 14:17N 48°26' W 123°26'0 0.0
2016-Nov-22 13:29N 48°26' W 123°26'0 0.0
2016-Nov-22 10:28N 48°26' W 123°26'0 0.0
2016-Nov-22 09:33N 48°26' W 123°26'0 0.0
2016-Nov-22 08:32N 48°26' W 123°26'0 0.0
2016-Nov-22 07:33N 48°26' W 123°26'0 0.0
2016-Nov-22 05:33N 48°26' W 123°26'0 0.0
2016-Nov-22 04:30N 48°26' W 123°26'0 0.0
2016-Nov-22 03:33N 48°26' W 123°26'0 0.0
2016-Nov-22 02:33N 48°26' W 123°26'0 0.0
2016-Nov-21 23:33N 48°26' W 123°26'0 0.0
2016-Nov-21 21:33N 48°26' W 123°26'0 0.0
2016-Nov-21 17:33N 48°26' W 123°26'0 0.0
2016-Nov-21 14:33N 48°26' W 123°26'0 0.0
2016-Nov-21 13:33N 48°26' W 123°26'0 0.0
2016-Nov-21 12:33N 48°26' W 123°26'0 0.0
2016-Nov-21 11:33N 48°26' W 123°26'0 0.0
2016-Nov-21 10:33N 48°26' W 123°26'0 0.0
2016-Nov-21 08:33N 48°26' W 123°26'0 0.0
2016-Nov-21 07:33N 48°26' W 123°26'0 0.0
2016-Nov-21 05:33N 48°26' W 123°26'0 0.0
2016-Nov-21 04:33N 48°26' W 123°26'0 0.0
2016-Nov-21 02:28N 48°26' W 123°26'0 0.0
2016-Nov-21 00:33N 48°26' W 123°26'0 0.0
2016-Nov-20 22:33N 48°26' W 123°26'0 0.0
2016-Nov-20 21:09N 48°26' W 123°26'0 0.0
2016-Nov-20 17:29N 48°26' W 123°26'0 0.0
2016-Nov-20 16:27N 48°26' W 123°26'0 0.0
2016-Nov-20 14:32N 48°26' W 123°26'0 0.0
2016-Nov-20 13:33N 48°26' W 123°26'0 0.0
2016-Nov-20 12:32N 48°26' W 123°26'0 0.0
2016-Nov-20 09:31N 48°26' W 123°26'0 0.0
2016-Nov-20 08:33N 48°26' W 123°26'0 0.0
2016-Nov-20 07:32N 48°26' W 123°26'0 0.0
2016-Nov-20 06:33N 48°26' W 123°26'0 0.0
2016-Nov-20 05:33N 48°26' W 123°26'0 0.0
2016-Nov-20 04:33N 48°26' W 123°26'0 0.0
2016-Nov-20 03:24N 48°26' W 123°26'0 0.0
2016-Nov-19 23:31N 48°26' W 123°26'0 0.0
2016-Nov-19 22:33N 48°26' W 123°26'0 0.0
2016-Nov-19 20:10N 48°26' W 123°26'0 0.0
2016-Nov-19 19:33N 48°26' W 123°26'0 0.0
2016-Nov-19 16:20N 48°26' W 123°26'0 0.0
2016-Nov-19 14:24N 48°26' W 123°26'0 0.0
2016-Nov-19 11:33N 48°26' W 123°26'0 0.0
2016-Nov-19 09:32N 48°26' W 123°26'0 0.0
2016-Nov-18 18:28N 48°26' W 123°26'0 0.0
2016-Nov-18 17:26N 48°26' W 123°26'0 0.0
2016-Nov-18 12:18N 48°26' W 123°26'0 0.0
2016-Nov-18 11:33N 48°26' W 123°26'0 0.0
2016-Nov-18 04:28N 48°26' W 123°26'0 0.0
2016-Nov-18 00:29N 48°26' W 123°26'0 0.0
2016-Nov-17 23:14N 48°26' W 123°26'0 0.0
2016-Nov-17 22:33N 48°26' W 123°26'0 0.0
2016-Nov-17 21:33N 48°26' W 123°26'1 0.3
2016-Nov-17 19:32N 48°26' W 123°27'0 0.3
2016-Nov-17 18:31N 48°26' W 123°27'1 0.2
2016-Nov-17 14:32N 48°26' W 123°26'0 0.0
2016-Nov-17 13:31N 48°26' W 123°26'0 0.0
2016-Nov-17 06:31N 48°26' W 123°26'0 0.0
2016-Nov-17 02:08N 48°26' W 123°26'0 0.0
2016-Nov-16 23:33N 48°26' W 123°26'0 0.0
2016-Nov-16 22:32N 48°26' W 123°26'1 0.3
2016-Nov-16 20:31N 48°26' W 123°27'8 8.5
2016-Nov-16 19:33N 48°21' W 123°17'1 1.4
2016-Nov-16 18:33N 48°19' W 123°17'4 3.7
2016-Nov-16 17:33N 48°20' W 123°22'7 6.6
2016-Nov-16 16:33N 48°26' W 123°26'0 0.0
2016-Nov-16 12:21N 48°26' W 123°26'0 0.0
2016-Nov-16 09:33N 48°26' W 123°26'0 0.0
2016-Nov-16 08:33N 48°26' W 123°26'0 0.0
2016-Nov-16 07:33N 48°26' W 123°26'0 0.0
2016-Nov-16 06:33N 48°26' W 123°26'0 0.0
2016-Nov-16 04:33N 48°26' W 123°26'0 0.0
2016-Nov-16 03:33N 48°26' W 123°26'0 0.0
2016-Nov-16 02:31N 48°26' W 123°26'0 0.0
2016-Nov-16 01:33N 48°26' W 123°26'2 0.4
2016-Nov-15 21:33N 48°24' W 123°25'6 3.2
2016-Nov-15 19:33N 48°21' W 123°17'1 0.6
2016-Nov-15 18:34N 48°21' W 123°18'7 0.4
2016-Nov-15 00:05N 48°26' W 123°26'0 1.0
2016-Nov-14 23:38N 48°26' W 123°27'10 2.4
2016-Nov-14 19:31N 48°21' W 123°14'11 3.6
2016-Nov-14 16:33N 48°26' W 123°27'1 0.0
2016-Nov-13 03:15N 48°26' W 123°26'0 0.0
2016-Nov-12 23:25N 48°26' W 123°26'  
Track history (hours):
 
Tides and Currents Weather Stations Pressure Air Temp Water Temp Dewpoint Dewpoint Depression Visibility Wind Speed Wind Dir Waves Ship Positions

Pct Moose

Last reported at 2016-Nov-22 22:18 UTC. Time now 2016-Dec-10 12:54 UTC.
Position N 48°26' W 123°26'.
Warning: this ship's position is 17 days out of date.

Length 33 m.

Type: Military. MMSI: 316013412.

Date/timePositionNaut miles runAvg speedWind from/ knotsBaromVisibWave heightAir tempDewpointWater temp
2016-Nov-22 22:18N 48°26' W 123°26'0 0.0
2016-Nov-22 20:33N 48°26' W 123°26'0 0.0
2016-Nov-22 19:33N 48°26' W 123°26'0 0.0
2016-Nov-22 17:25N 48°26' W 123°26'0 0.0
2016-Nov-22 16:33N 48°26' W 123°26'0 0.0
2016-Nov-22 15:15N 48°26' W 123°26'0 0.0
2016-Nov-22 14:17N 48°26' W 123°26'0 0.0
2016-Nov-22 13:29N 48°26' W 123°26'0 0.0
2016-Nov-22 10:28N 48°26' W 123°26'0 0.0
2016-Nov-22 09:33N 48°26' W 123°26'0 0.0
2016-Nov-22 08:32N 48°26' W 123°26'0 0.0
2016-Nov-22 07:33N 48°26' W 123°26'0 0.0
2016-Nov-22 05:33N 48°26' W 123°26'0 0.0
2016-Nov-22 04:30N 48°26' W 123°26'0 0.0
2016-Nov-22 03:33N 48°26' W 123°26'0 0.0
2016-Nov-22 02:33N 48°26' W 123°26'0 0.0
2016-Nov-21 23:33N 48°26' W 123°26'0 0.0
2016-Nov-21 21:33N 48°26' W 123°26'0 0.0
2016-Nov-21 17:33N 48°26' W 123°26'0 0.0
2016-Nov-21 14:33N 48°26' W 123°26'0 0.0
2016-Nov-21 13:33N 48°26' W 123°26'0 0.0
2016-Nov-21 12:33N 48°26' W 123°26'0 0.0
2016-Nov-21 11:33N 48°26' W 123°26'0 0.0
2016-Nov-21 10:33N 48°26' W 123°26'0 0.0
2016-Nov-21 08:33N 48°26' W 123°26'0 0.0
2016-Nov-21 07:33N 48°26' W 123°26'0 0.0
2016-Nov-21 05:33N 48°26' W 123°26'0 0.0
2016-Nov-21 04:33N 48°26' W 123°26'0 0.0
2016-Nov-21 02:28N 48°26' W 123°26'0 0.0
2016-Nov-21 00:33N 48°26' W 123°26'0 0.0
2016-Nov-20 22:33N 48°26' W 123°26'0 0.0
2016-Nov-20 21:09N 48°26' W 123°26'0 0.0
2016-Nov-20 17:29N 48°26' W 123°26'0 0.0
2016-Nov-20 16:27N 48°26' W 123°26'0 0.0
2016-Nov-20 14:32N 48°26' W 123°26'0 0.0
2016-Nov-20 13:33N 48°26' W 123°26'0 0.0
2016-Nov-20 12:32N 48°26' W 123°26'0 0.0
2016-Nov-20 09:31N 48°26' W 123°26'0 0.0
2016-Nov-20 08:33N 48°26' W 123°26'0 0.0
2016-Nov-20 07:32N 48°26' W 123°26'0 0.0
2016-Nov-20 06:33N 48°26' W 123°26'0 0.0
2016-Nov-20 05:33N 48°26' W 123°26'0 0.0
2016-Nov-20 04:33N 48°26' W 123°26'0 0.0
2016-Nov-20 03:24N 48°26' W 123°26'0 0.0
2016-Nov-19 23:31N 48°26' W 123°26'0 0.0
2016-Nov-19 22:33N 48°26' W 123°26'0 0.0
2016-Nov-19 20:10N 48°26' W 123°26'0 0.0
2016-Nov-19 19:33N 48°26' W 123°26'0 0.0
2016-Nov-19 16:20N 48°26' W 123°26'0 0.0
2016-Nov-19 14:24N 48°26' W 123°26'0 0.0
2016-Nov-19 11:33N 48°26' W 123°26'0 0.0
2016-Nov-19 09:32N 48°26' W 123°26'0 0.0
2016-Nov-18 18:28N 48°26' W 123°26'0 0.0
2016-Nov-18 17:26N 48°26' W 123°26'0 0.0
2016-Nov-18 12:18N 48°26' W 123°26'0 0.0
2016-Nov-18 11:33N 48°26' W 123°26'0 0.0
2016-Nov-18 04:28N 48°26' W 123°26'0 0.0
2016-Nov-18 00:29N 48°26' W 123°26'0 0.0
2016-Nov-17 23:14N 48°26' W 123°26'0 0.0
2016-Nov-17 22:33N 48°26' W 123°26'0 0.0
2016-Nov-17 21:33N 48°26' W 123°26'1 0.3
2016-Nov-17 19:32N 48°26' W 123°27'0 0.3
2016-Nov-17 18:31N 48°26' W 123°27'1 0.2
2016-Nov-17 14:32N 48°26' W 123°26'0 0.0
2016-Nov-17 13:31N 48°26' W 123°26'0 0.0
2016-Nov-17 06:31N 48°26' W 123°26'0 0.0
2016-Nov-17 02:08N 48°26' W 123°26'0 0.0
2016-Nov-16 23:33N 48°26' W 123°26'0 0.0
2016-Nov-16 22:32N 48°26' W 123°26'1 0.3
2016-Nov-16 20:31N 48°26' W 123°27'8 8.5
2016-Nov-16 19:33N 48°21' W 123°17'1 1.4
2016-Nov-16 18:33N 48°19' W 123°17'4 3.7
2016-Nov-16 17:33N 48°20' W 123°22'7 6.6
2016-Nov-16 16:33N 48°26' W 123°26'0 0.0
2016-Nov-16 12:21N 48°26' W 123°26'0 0.0
2016-Nov-16 09:33N 48°26' W 123°26'0 0.0
2016-Nov-16 08:33N 48°26' W 123°26'0 0.0
2016-Nov-16 07:33N 48°26' W 123°26'0 0.0
2016-Nov-16 06:33N 48°26' W 123°26'0 0.0
2016-Nov-16 04:33N 48°26' W 123°26'0 0.0
2016-Nov-16 03:33N 48°26' W 123°26'0 0.0
2016-Nov-16 02:31N 48°26' W 123°26'0 0.0
2016-Nov-16 01:33N 48°26' W 123°26'2 0.4
2016-Nov-15 21:33N 48°24' W 123°25'6 3.2
2016-Nov-15 19:33N 48°21' W 123°17'1 0.6
2016-Nov-15 18:34N 48°21' W 123°18'7 0.4
2016-Nov-15 00:05N 48°26' W 123°26'0 1.0
2016-Nov-14 23:38N 48°26' W 123°27'10 2.4
2016-Nov-14 19:31N 48°21' W 123°14'11 3.6
2016-Nov-14 16:33N 48°26' W 123°27'1 0.0
2016-Nov-13 03:15N 48°26' W 123°26'0 0.0
2016-Nov-12 23:25N 48°26' W 123°26'  

Dump ship's entire track history